Terminal Aerodrome Forecast
Issued by NWS

Home | Current Version | Previous Version | Text Only | Print | Product List | Glossary On
Versions: 1 2 3 4 5 6 7 8 9 10 11 12 13
000
FTUS45 KREV 230525
TAFMMH
TAF
KMMH 230525Z 2306/2406 VRB03KT P6SM BKN090
     FM231700 13008KT P6SM SCT120
     FM232200 27014G22KT P6SM VCSH BKN100
     FM240300 28007KT P6SM SCT120=

USA.gov is the U.S. government's official web portal to all federal, state and local government web resources and services.